Time;durP1;ratioP1;P1;durP2;ratioP2;P2;SDS_P1;SDS_P2;PMS_P1;PMS_P2;Temp;Humidity;BMP_temperature;BMP_pressure;BME280_temperature;BME280_humidity;BME280_pressure;Samples;Min_cycle;Max_cycle;Signal;HPM_P1;HPM_P2
2022/09/10 00:01:59;;;;;;;6.95;3.00;;;;;;;-145.70;100.00;63560.63;5071245;28;20535;-61
2022/09/10 00:04:25;;;;;;;4.65;2.50;;;;;;;-145.70;100.00;63560.63;5063854;28;20020;-62
2022/09/10 00:06:51;;;;;;;5.53;2.47;;;;;;;-145.70;100.00;63560.63;5052036;28;20038;-61
2022/09/10 00:09:16;;;;;;;7.45;2.42;;;;;;;-145.70;100.00;63560.63;5010115;28;20554;-60
2022/09/10 00:11:42;;;;;;;5.85;2.65;;;;;;;-145.70;100.00;63560.63;5058342;28;20396;-63
2022/09/10 00:14:14;;;;;;;6.57;2.50;;;;;;;-145.70;100.00;63560.63;5068661;28;20055;-61
2022/09/10 00:16:40;;;;;;;6.00;2.20;;;;;;;-145.70;100.00;63560.63;5076756;28;20216;-60
2022/09/10 00:19:05;;;;;;;5.70;2.40;;;;;;;-145.70;100.00;63560.63;5058626;28;20032;-61
2022/09/10 00:21:31;;;;;;;4.88;2.63;;;;;;;-145.70;100.00;63560.63;5071944;28;20040;-60
2022/09/10 00:23:57;;;;;;;4.63;2.10;;;;;;;-145.70;100.00;63560.63;5071215;28;20114;-61
2022/09/10 00:26:26;;;;;;;5.18;2.60;;;;;;;-145.70;100.00;63560.63;5068494;28;20031;-60
2022/09/10 00:28:54;;;;;;;5.80;2.20;;;;;;;-145.70;100.00;63560.63;5062295;28;20465;-61
2022/09/10 00:31:20;;;;;;;5.03;2.10;;;;;;;-145.70;100.00;63560.63;5071088;28;22079;-60
2022/09/10 00:33:46;;;;;;;4.65;2.00;;;;;;;-145.70;100.00;63560.63;5079367;28;20482;-60
2022/09/10 00:36:18;;;;;;;5.95;2.35;;;;;;;-145.70;100.00;63560.63;5048754;28;20041;-62
2022/09/10 00:38:44;;;;;;;4.95;2.30;;;;;;;-145.70;100.00;63560.63;5075114;28;20016;-58
2022/09/10 00:41:10;;;;;;;4.65;2.17;;;;;;;-145.70;100.00;63560.63;5077527;28;20032;-60
2022/09/10 00:43:58;;;;;;;5.55;2.20;;;;;;;-145.70;100.00;63560.63;5060711;28;20038;-61
2022/09/10 00:46:32;;;;;;;6.50;2.10;;;;;;;-145.70;100.00;63560.63;5068347;28;20037;-60
2022/09/10 00:49:01;;;;;;;5.72;2.10;;;;;;;-145.70;100.00;63560.63;5020567;27;20142;-60
2022/09/10 00:51:29;;;;;;;6.45;2.20;;;;;;;-145.70;100.00;63560.63;5068314;28;20040;-61
2022/09/10 00:53:56;;;;;;;3.97;1.98;;;;;;;-145.70;100.00;63560.63;5089643;28;20502;-60
2022/09/10 00:56:21;;;;;;;4.88;2.05;;;;;;;-145.70;100.00;63560.63;5099302;27;20032;-60
2022/09/10 00:58:48;;;;;;;4.32;2.05;;;;;;;-145.70;100.00;63560.63;5069507;28;20039;-62
2022/09/10 01:01:14;;;;;;;6.07;1.90;;;;;;;-145.70;100.00;63560.63;5054738;28;20042;-60
2022/09/10 01:03:41;;;;;;;7.43;2.13;;;;;;;-145.70;100.00;63560.63;5061804;28;20021;-61
2022/09/10 01:06:07;;;;;;;7.45;2.10;;;;;;;-145.70;100.00;63560.63;5057212;28;20032;-60
2022/09/10 01:08:32;;;;;;;6.22;1.95;;;;;;;-145.70;100.00;63560.63;5062543;28;20678;-66
2022/09/10 01:11:31;;;;;;;4.07;1.98;;;;;;;-145.70;100.00;63560.63;5042033;28;20063;-61
2022/09/10 01:14:23;;;;;;;5.90;1.85;;;;;;;-145.70;100.00;63560.63;5071595;28;20085;-62
2022/09/10 01:16:54;;;;;;;5.88;1.83;;;;;;;-145.70;100.00;63560.63;5065088;28;20042;-60
2022/09/10 01:19:44;;;;;;;4.35;2.00;;;;;;;-145.70;100.00;63560.63;5066391;28;20032;-62
2022/09/10 01:22:49;;;;;;;5.43;1.85;;;;;;;-145.70;100.00;63560.63;5104032;27;20047;-61
2022/09/10 01:25:19;;;;;;;5.75;2.10;;;;;;;-145.70;100.00;63560.63;5057774;28;20040;-60
2022/09/10 01:27:47;;;;;;;5.05;1.85;;;;;;;-145.70;100.00;63560.63;5054379;28;20039;-61
2022/09/10 01:30:28;;;;;;;4.53;2.10;;;;;;;-145.70;100.00;63560.63;5072335;28;20090;-61
2022/09/10 01:32:55;;;;;;;6.05;1.90;;;;;;;-145.70;100.00;63560.63;5055073;28;20036;-61
2022/09/10 01:35:47;;;;;;;3.33;1.65;;;;;;;-145.70;100.00;63560.63;5052141;28;20552;-61
2022/09/10 01:38:18;;;;;;;4.00;1.70;;;;;;;-145.70;100.00;63560.63;5058792;28;20032;-61
2022/09/10 01:40:45;;;;;;;4.88;1.73;;;;;;;-145.70;100.00;63560.63;5085518;28;20113;-62
2022/09/10 01:43:10;;;;;;;4.90;1.98;;;;;;;-145.70;100.00;63560.63;5057974;28;20027;-61
2022/09/10 01:45:59;;;;;;;7.20;2.00;;;;;;;-145.70;100.00;63560.63;5053622;28;20033;-60
2022/09/10 01:48:43;;;;;;;5.63;1.70;;;;;;;-145.70;100.00;63560.63;5034163;28;20033;-60
2022/09/10 01:51:45;;;;;;;4.70;1.75;;;;;;;-145.70;100.00;63560.63;5016403;28;20435;-59
2022/09/10 01:54:25;;;;;;;5.13;1.80;;;;;;;-145.70;100.00;63560.63;5070025;28;20097;-61
2022/09/10 01:57:15;;;;;;;5.07;1.77;;;;;;;-145.70;100.00;63560.63;5069592;28;20036;-60
2022/09/10 02:00:16;;;;;;;5.05;1.80;;;;;;;-145.70;100.00;63560.63;5067448;28;20542;-61
2022/09/10 02:02:53;;;;;;;5.10;1.83;;;;;;;-145.70;100.00;63560.63;5017512;28;20033;-62
2022/09/10 02:05:22;;;;;;;5.45;1.70;;;;;;;-145.70;100.00;63560.63;5061453;28;20044;-59
2022/09/10 02:07:48;;;;;;;5.33;1.90;;;;;;;-145.70;100.00;63560.63;5053533;28;20032;-59
2022/09/10 02:10:14;;;;;;;5.22;1.90;;;;;;;-145.70;100.00;63560.63;5007260;28;20082;-61
2022/09/10 02:12:40;;;;;;;4.00;1.88;;;;;;;-145.70;100.00;63560.63;5042902;28;20036;-62
2022/09/10 02:15:07;;;;;;;6.00;1.98;;;;;;;-145.70;100.00;63560.63;5057999;28;20028;-62
2022/09/10 02:17:36;;;;;;;4.70;1.67;;;;;;;-145.70;100.00;63560.63;5059190;28;20024;-60
2022/09/10 02:20:04;;;;;;;5.05;2.15;;;;;;;-145.70;100.00;63560.63;5057666;28;20069;-62
2022/09/10 02:22:31;;;;;;;4.45;1.70;;;;;;;-145.70;100.00;63560.63;5063406;28;20028;-59
2022/09/10 02:24:57;;;;;;;5.57;1.83;;;;;;;-145.70;100.00;63560.63;5062755;28;20028;-62
2022/09/10 02:27:22;;;;;;;6.18;2.38;;;;;;;-145.70;100.00;63560.63;5054857;28;20513;-59
2022/09/10 02:29:48;;;;;;;3.95;1.90;;;;;;;-145.70;100.00;63560.63;5051158;28;20032;-59
2022/09/10 02:32:14;;;;;;;4.82;1.83;;;;;;;-145.70;100.00;63560.63;4991703;28;20033;-63
2022/09/10 02:34:39;;;;;;;4.70;1.75;;;;;;;-145.70;100.00;63560.63;5072709;28;20035;-59
2022/09/10 02:37:05;;;;;;;5.82;1.80;;;;;;;-145.70;100.00;63560.63;5061305;28;20482;-60
2022/09/10 02:39:30;;;;;;;4.78;1.80;;;;;;;-145.70;100.00;63560.63;5065230;28;20048;-61
2022/09/10 02:41:57;;;;;;;3.92;1.60;;;;;;;-145.70;100.00;63560.63;5084671;28;20543;-61
2022/09/10 02:44:23;;;;;;;7.75;1.90;;;;;;;-145.70;100.00;63560.63;5053468;28;20031;-60
2022/09/10 02:46:48;;;;;;;5.70;1.92;;;;;;;-145.70;100.00;63560.63;5053904;28;20037;-60
2022/09/10 02:49:14;;;;;;;4.30;1.90;;;;;;;-145.70;100.00;63560.63;5069350;28;20482;-62
2022/09/10 02:51:41;;;;;;;4.60;1.90;;;;;;;-145.70;100.00;63560.63;5051813;28;20038;-60
2022/09/10 02:54:06;;;;;;;4.63;1.50;;;;;;;-145.70;100.00;63560.63;5076646;28;20020;-60
2022/09/10 02:56:33;;;;;;;4.90;1.70;;;;;;;-145.70;100.00;63560.63;5071008;28;20100;-59
2022/09/10 02:58:58;;;;;;;4.32;1.80;;;;;;;-145.70;100.00;63560.63;5072814;28;20016;-60
2022/09/10 03:01:23;;;;;;;5.97;2.10;;;;;;;-145.70;100.00;63560.63;5073780;28;20033;-59
2022/09/10 03:03:51;;;;;;;4.63;1.77;;;;;;;-145.70;100.00;63560.63;5067006;28;20403;-60
2022/09/10 03:06:16;;;;;;;5.32;1.50;;;;;;;-145.70;100.00;63560.63;5067658;28;20526;-60
2022/09/10 03:08:42;;;;;;;4.63;1.60;;;;;;;-145.70;100.00;63560.63;5071767;28;20028;-61
2022/09/10 03:11:07;;;;;;;4.43;1.73;;;;;;;-145.70;100.00;63560.63;5071662;28;20464;-61
2022/09/10 03:13:33;;;;;;;4.07;1.50;;;;;;;-145.70;100.00;63560.63;5013058;27;20020;-59
2022/09/10 03:15:59;;;;;;;5.95;1.60;;;;;;;-145.70;100.00;63560.63;5066674;28;20024;-59
2022/09/10 03:18:26;;;;;;;5.25;1.60;;;;;;;-145.70;100.00;63560.63;5055664;28;20036;-58
2022/09/10 03:20:51;;;;;;;4.93;1.70;;;;;;;-145.70;100.00;63560.63;5087584;28;20493;-59
2022/09/10 03:23:17;;;;;;;4.50;1.73;;;;;;;-145.70;100.00;63560.63;5076007;28;20139;-62
2022/09/10 03:25:43;;;;;;;4.93;1.60;;;;;;;-145.70;100.00;63560.63;5063769;28;20032;-59
2022/09/10 03:28:09;;;;;;;3.83;1.50;;;;;;;-145.70;100.00;63560.63;5074666;28;20882;-59
2022/09/10 03:30:35;;;;;;;3.75;1.35;;;;;;;-145.70;100.00;63560.63;5066200;28;20024;-63
2022/09/10 03:33:01;;;;;;;5.72;1.85;;;;;;;-145.70;100.00;63560.63;5061090;28;20055;-62
2022/09/10 03:35:26;;;;;;;5.47;1.40;;;;;;;-145.70;100.00;63560.63;5033392;28;20028;-62
2022/09/10 03:37:52;;;;;;;3.25;1.20;;;;;;;-145.70;100.00;63560.63;5058991;28;20032;-63
2022/09/10 03:40:18;;;;;;;4.05;1.58;;;;;;;-145.70;100.00;63560.63;5061102;28;20039;-61
2022/09/10 03:42:44;;;;;;;3.80;1.35;;;;;;;-145.70;100.00;63560.63;5071576;28;20478;-64
2022/09/10 03:45:10;;;;;;;7.22;1.67;;;;;;;-145.70;100.00;63560.63;5064744;28;20555;-62
2022/09/10 03:47:36;;;;;;;3.97;1.45;;;;;;;-145.70;100.00;63560.63;5057238;28;20039;-63
2022/09/10 03:50:03;;;;;;;4.38;1.50;;;;;;;-145.70;100.00;63560.63;5051476;28;20447;-63
2022/09/10 03:52:28;;;;;;;5.95;1.38;;;;;;;-145.70;100.00;63560.63;5077315;28;20028;-61
2022/09/10 03:54:54;;;;;;;3.65;1.40;;;;;;;-145.70;100.00;63560.63;5001569;28;20639;-61
2022/09/10 03:57:19;;;;;;;4.28;1.33;;;;;;;-145.70;100.00;63560.63;5058115;28;20028;-63
2022/09/10 03:59:45;;;;;;;3.85;1.40;;;;;;;-145.70;100.00;63560.63;5071908;28;20024;-61
2022/09/10 04:02:10;;;;;;;3.78;1.48;;;;;;;-145.70;100.00;63560.63;5052934;28;20039;-61
2022/09/10 04:04:36;;;;;;;7.32;1.85;;;;;;;-145.70;100.00;63560.63;5067929;28;20896;-60
2022/09/10 04:07:03;;;;;;;4.15;1.60;;;;;;;-145.70;100.00;63560.63;5082557;28;20044;-61
2022/09/10 04:09:28;;;;;;;4.68;1.60;;;;;;;-145.70;100.00;63560.63;5062648;28;20111;-61
2022/09/10 04:11:54;;;;;;;4.57;1.63;;;;;;;-145.70;100.00;63560.63;5059517;28;20115;-60
2022/09/10 04:14:19;;;;;;;4.30;1.70;;;;;;;-145.70;100.00;63560.63;5060117;28;20508;-60
2022/09/10 04:16:44;;;;;;;5.55;1.70;;;;;;;-145.70;100.00;63560.63;5069019;28;20540;-62
2022/09/10 04:19:10;;;;;;;3.88;1.58;;;;;;;-145.70;100.00;63560.63;5058706;28;20032;-61
2022/09/10 04:21:35;;;;;;;7.78;1.77;;;;;;;-145.70;100.00;63560.63;5079051;28;20032;-61
2022/09/10 04:24:01;;;;;;;4.85;1.48;;;;;;;-145.70;100.00;63560.63;5058468;28;20035;-61
2022/09/10 04:26:27;;;;;;;4.72;1.63;;;;;;;-145.70;100.00;63560.63;5074107;28;20407;-62
2022/09/10 04:28:52;;;;;;;4.70;1.70;;;;;;;-145.70;100.00;63560.63;5061178;28;20111;-62
2022/09/10 04:31:18;;;;;;;4.55;1.50;;;;;;;-145.70;100.00;63560.63;5049555;28;20501;-60
2022/09/10 04:33:43;;;;;;;7.10;1.80;;;;;;;-145.70;100.00;63560.63;5058852;28;20035;-62
2022/09/10 04:36:09;;;;;;;3.90;1.67;;;;;;;-145.70;100.00;63560.63;5066452;28;20113;-64
2022/09/10 04:38:38;;;;;;;3.40;1.45;;;;;;;-145.70;100.00;63560.63;5054740;28;20024;-62
2022/09/10 04:41:04;;;;;;;3.97;1.40;;;;;;;-145.70;100.00;63560.63;5060734;28;20061;-63
2022/09/10 04:43:30;;;;;;;3.65;1.63;;;;;;;-145.70;100.00;63560.63;5058499;28;20584;-62
2022/09/10 04:45:56;;;;;;;3.83;1.40;;;;;;;-145.70;100.00;63560.63;5059756;28;20070;-63
2022/09/10 04:48:22;;;;;;;5.72;1.30;;;;;;;-145.70;100.00;63560.63;5058592;28;20033;-60
2022/09/10 04:50:49;;;;;;;4.38;1.63;;;;;;;-145.70;100.00;63560.63;5073197;28;20078;-60
2022/09/10 04:53:15;;;;;;;4.20;1.50;;;;;;;-145.70;100.00;63560.63;5052303;28;20040;-61
2022/09/10 04:55:42;;;;;;;3.78;1.30;;;;;;;-145.70;100.00;63560.63;5053369;28;20047;-61
2022/09/10 04:58:08;;;;;;;5.47;1.48;;;;;;;-145.70;100.00;63560.63;5044201;28;20047;-63
2022/09/10 05:00:34;;;;;;;4.70;1.48;;;;;;;-145.70;100.00;63560.63;5032342;28;20039;-61
2022/09/10 05:02:59;;;;;;;4.40;1.65;;;;;;;-145.70;100.00;63560.63;5044849;28;20658;-61
2022/09/10 05:05:25;;;;;;;5.85;1.60;;;;;;;-145.70;100.00;63560.63;5064873;28;20061;-61
2022/09/10 05:07:52;;;;;;;6.38;1.52;;;;;;;-145.70;100.00;63560.63;5077443;28;20032;-61
2022/09/10 05:10:19;;;;;;;7.38;1.83;;;;;;;-145.70;100.00;63560.63;5096995;27;20056;-61
2022/09/10 05:12:44;;;;;;;6.25;1.67;;;;;;;-145.70;100.00;63560.63;5060934;28;20056;-61
2022/09/10 05:15:10;;;;;;;4.00;1.58;;;;;;;-145.70;100.00;63560.63;5052617;28;20367;-61
2022/09/10 05:17:35;;;;;;;6.25;1.65;;;;;;;-145.70;100.00;63560.63;5054376;28;20343;-61
2022/09/10 05:20:02;;;;;;;5.05;1.50;;;;;;;-145.70;100.00;63560.63;4998726;28;20043;-61
2022/09/10 05:22:28;;;;;;;3.60;1.40;;;;;;;-145.70;100.00;63560.63;5098175;28;20036;-60
2022/09/10 05:24:54;;;;;;;5.55;1.77;;;;;;;-145.70;100.00;63560.63;5061523;28;20558;-63
2022/09/10 05:27:19;;;;;;;4.57;1.30;;;;;;;-145.70;100.00;63560.63;5063784;28;20514;-63
2022/09/10 05:29:45;;;;;;;4.82;1.50;;;;;;;-145.70;100.00;63560.63;5054455;28;20028;-61
2022/09/10 05:32:10;;;;;;;3.90;1.30;;;;;;;-145.70;100.00;63560.63;5054295;28;20118;-60
2022/09/10 05:34:38;;;;;;;3.45;1.00;;;;;;;-145.70;100.00;63560.63;5052245;28;20036;-63
2022/09/10 05:37:04;;;;;;;5.30;1.27;;;;;;;-145.70;100.00;63560.63;5065900;28;20033;-60
2022/09/10 05:39:30;;;;;;;5.13;1.63;;;;;;;-145.70;100.00;63560.63;5052056;28;20391;-60
2022/09/10 05:41:56;;;;;;;3.90;1.30;;;;;;;-145.70;100.00;63560.63;5033558;28;20032;-60
2022/09/10 05:44:21;;;;;;;4.43;1.77;;;;;;;-145.70;100.00;63560.63;5051693;28;20035;-60
2022/09/10 05:46:47;;;;;;;4.05;1.58;;;;;;;-145.70;100.00;63560.63;5048699;28;20135;-59
2022/09/10 05:49:13;;;;;;;4.13;1.48;;;;;;;-145.70;100.00;63560.63;5063500;28;20128;-62
2022/09/10 05:51:39;;;;;;;3.40;1.30;;;;;;;-145.70;100.00;63560.63;5048982;28;20024;-61
2022/09/10 05:54:04;;;;;;;3.72;1.58;;;;;;;-145.70;100.00;63560.63;5085103;28;20044;-60
2022/09/10 05:56:30;;;;;;;5.28;1.50;;;;;;;-145.70;100.00;63560.63;5067757;28;20789;-59
2022/09/10 05:58:56;;;;;;;3.90;1.50;;;;;;;-145.70;100.00;63560.63;5084557;28;20630;-60
2022/09/10 06:01:21;;;;;;;4.68;1.40;;;;;;;-145.70;100.00;63560.63;5006791;28;21062;-61
2022/09/10 06:03:47;;;;;;;3.80;1.35;;;;;;;-145.70;100.00;63560.63;5051623;28;20024;-62
2022/09/10 06:06:13;;;;;;;4.15;1.30;;;;;;;-145.70;100.00;63560.63;5097096;27;20028;-64
2022/09/10 06:08:38;;;;;;;4.53;2.05;;;;;;;-145.70;100.00;63560.63;5071442;28;20020;-59
2022/09/10 06:11:04;;;;;;;4.03;1.30;;;;;;;-145.70;100.00;63560.63;5053748;28;20292;-61
2022/09/10 06:13:31;;;;;;;5.18;1.92;;;;;;;-145.70;100.00;63560.63;5059391;28;20023;-61
2022/09/10 06:15:57;;;;;;;5.22;1.73;;;;;;;-145.70;100.00;63560.63;5046602;28;21162;-63
2022/09/10 06:18:22;;;;;;;4.68;1.40;;;;;;;-145.70;100.00;63560.63;5063762;28;20764;-62
2022/09/10 06:20:48;;;;;;;5.10;1.48;;;;;;;-145.70;100.00;63560.63;5020423;28;22272;-62
2022/09/10 06:23:15;;;;;;;4.15;1.27;;;;;;;-145.70;100.00;63560.63;5056346;28;20024;-61
2022/09/10 06:25:41;;;;;;;4.53;1.42;;;;;;;-145.70;100.00;63560.63;5056305;28;20028;-60
2022/09/10 06:28:07;;;;;;;4.38;1.50;;;;;;;-145.70;100.00;63560.63;5098984;27;20056;-60
2022/09/10 06:30:32;;;;;;;3.38;1.30;;;;;;;-145.70;100.00;63560.63;5082400;27;20430;-61
2022/09/10 06:32:57;;;;;;;3.80;1.50;;;;;;;-145.70;100.00;63560.63;5071975;28;20047;-61
2022/09/10 06:35:24;;;;;;;4.13;1.55;;;;;;;-145.70;100.00;63560.63;5068937;28;20375;-61
2022/09/10 06:37:49;;;;;;;5.05;1.80;;;;;;;-145.70;100.00;63560.63;5060030;28;20071;-62
2022/09/10 06:40:15;;;;;;;3.92;1.52;;;;;;;-145.70;100.00;63560.63;5098428;27;20114;-61
2022/09/10 06:42:41;;;;;;;3.47;1.42;;;;;;;-145.70;100.00;63560.63;5039217;28;20130;-62
2022/09/10 06:45:06;;;;;;;3.20;1.38;;;;;;;-145.70;100.00;63560.63;5063763;28;20559;-61
2022/09/10 06:47:32;;;;;;;7.00;1.55;;;;;;;-145.70;100.00;63560.63;5057986;28;20032;-61
2022/09/10 06:49:57;;;;;;;4.20;1.30;;;;;;;-145.70;100.00;63560.63;5081268;27;20035;-60
2022/09/10 06:52:23;;;;;;;3.15;1.10;;;;;;;-145.70;100.00;63560.63;5080928;28;20024;-61
2022/09/10 06:54:50;;;;;;;4.30;1.35;;;;;;;-145.70;100.00;63560.63;5060650;28;20024;-62
2022/09/10 06:57:16;;;;;;;3.50;1.20;;;;;;;-145.70;100.00;63560.63;5059645;28;20035;-65
2022/09/10 06:59:42;;;;;;;4.00;1.70;;;;;;;-145.70;100.00;63560.63;5082569;28;20062;-62
2022/09/10 07:02:08;;;;;;;6.65;1.33;;;;;;;-145.70;100.00;63560.63;5056925;28;20024;-62
2022/09/10 07:04:34;;;;;;;3.25;1.10;;;;;;;-145.70;100.00;63560.63;5057264;28;20032;-63
2022/09/10 07:06:59;;;;;;;3.42;1.38;;;;;;;-145.70;100.00;63560.63;5066550;28;20112;-61
2022/09/10 07:09:25;;;;;;;3.00;1.00;;;;;;;-145.70;100.00;63560.63;5050104;28;20028;-62
2022/09/10 07:11:51;;;;;;;4.28;1.80;;;;;;;-145.70;100.00;63560.63;5051500;28;20037;-66
2022/09/10 07:14:16;;;;;;;4.10;1.30;;;;;;;-145.70;100.00;63560.63;5051436;28;20129;-61
2022/09/10 07:16:43;;;;;;;5.10;1.40;;;;;;;-145.70;100.00;63560.63;5038903;28;20033;-65
2022/09/10 07:19:10;;;;;;;3.13;1.17;;;;;;;-145.70;100.00;63560.63;5084496;27;20364;-61
2022/09/10 07:21:36;;;;;;;3.53;1.10;;;;;;;-145.70;100.00;63560.63;5066130;28;20706;-62
2022/09/10 07:24:03;;;;;;;4.00;1.40;;;;;;;-145.70;100.00;63560.63;5047220;28;20111;-62
2022/09/10 07:26:29;;;;;;;4.35;1.70;;;;;;;-145.70;100.00;63560.63;5064595;28;20044;-60
2022/09/10 07:28:55;;;;;;;5.05;1.90;;;;;;;-145.70;100.00;63560.63;5066706;28;20425;-61
2022/09/10 07:31:22;;;;;;;7.93;2.25;;;;;;;-145.70;100.00;63560.63;5085672;27;20036;-64
2022/09/10 07:33:49;;;;;;;4.32;1.50;;;;;;;-145.70;100.00;63560.63;5048907;28;20063;-63
2022/09/10 07:36:15;;;;;;;3.58;1.50;;;;;;;-145.70;100.00;63560.63;5066003;28;20025;-62
2022/09/10 07:38:41;;;;;;;3.78;1.58;;;;;;;-145.70;100.00;63560.63;5016653;28;20098;-62
2022/09/10 07:41:11;;;;;;;3.70;1.23;;;;;;;-145.70;100.00;63560.63;5045888;28;20024;-61
2022/09/10 07:43:40;;;;;;;;;;;;;;;-145.70;100.00;63560.63;5068457;28;20137;-63
2022/09/10 07:46:06;;;;;;;7.90;1.20;;;;;;;-145.70;100.00;63560.63;5082888;28;19919;-62
2022/09/10 07:48:33;;;;;;;3.17;1.10;;;;;;;-145.70;100.00;63560.63;5053263;28;20038;-64
2022/09/10 07:51:03;;;;;;;3.50;1.13;;;;;;;-145.70;100.00;63560.63;5058842;28;20069;-61
2022/09/10 07:53:28;;;;;;;4.03;1.00;;;;;;;-145.70;100.00;63560.63;5059325;28;20123;-61
2022/09/10 07:56:01;;;;;;;4.20;1.17;;;;;;;-145.70;100.00;63560.63;5072463;28;20115;-64
2022/09/10 07:58:30;;;;;;;3.78;1.00;;;;;;;-145.70;100.00;63560.63;5054549;28;20066;-61
2022/09/10 08:00:56;;;;;;;;;;;;;;;-145.70;100.00;63560.63;5055149;28;20138;-63
2022/09/10 08:03:21;;;;;;;2.17;0.80;;;;;;;-145.70;100.00;63560.63;5084806;28;20235;-61
2022/09/10 08:05:47;;;;;;;4.63;0.90;;;;;;;-145.70;100.00;63560.63;5053771;28;20067;-61
2022/09/10 08:08:13;;;;;;;4.43;1.10;;;;;;;-145.70;100.00;63560.63;5056310;28;20058;-61
2022/09/10 08:10:39;;;;;;;3.45;0.98;;;;;;;-145.70;100.00;63560.63;5059773;28;20039;-60
2022/09/10 08:13:04;;;;;;;2.80;0.90;;;;;;;-145.70;100.00;63560.63;5054503;28;20047;-61
2022/09/10 08:15:30;;;;;;;2.17;0.80;;;;;;;-145.70;100.00;63560.63;5062213;28;20020;-61
2022/09/10 08:17:58;;;;;;;3.22;1.08;;;;;;;-145.70;100.00;63560.63;5051854;28;20866;-60
2022/09/10 08:20:25;;;;;;;5.10;1.23;;;;;;;-145.70;100.00;63560.63;5111031;27;20031;-60
2022/09/10 08:22:51;;;;;;;3.60;0.90;;;;;;;-145.70;100.00;63560.63;5071173;28;20419;-62
2022/09/10 08:25:18;;;;;;;2.30;0.80;;;;;;;-145.70;100.00;63560.63;5074422;28;20034;-60
2022/09/10 08:27:44;;;;;;;3.05;0.90;;;;;;;-145.70;100.00;63560.63;5072849;28;20507;-61
2022/09/10 08:30:10;;;;;;;2.30;0.80;;;;;;;-145.70;100.00;63560.63;5067930;28;20035;-62
2022/09/10 08:32:36;;;;;;;2.60;0.90;;;;;;;-145.70;100.00;63560.63;4991756;28;20032;-60
2022/09/10 08:35:03;;;;;;;2.65;0.80;;;;;;;-145.70;100.00;63560.63;5058999;28;20024;-62
2022/09/10 08:37:29;;;;;;;2.10;0.80;;;;;;;-145.70;100.00;63560.63;5056923;28;20028;-61
2022/09/10 08:39:55;;;;;;;4.22;1.10;;;;;;;-145.70;100.00;63560.63;5072504;28;20020;-60
2022/09/10 08:42:25;;;;;;;3.30;1.10;;;;;;;-145.70;100.00;63560.63;5059335;28;20035;-63
2022/09/10 08:45:18;;;;;;;4.43;1.20;;;;;;;-145.70;100.00;63560.63;5058186;28;20020;-63
2022/09/10 08:48:01;;;;;;;3.38;1.08;;;;;;;-145.70;100.00;63560.63;5049781;28;20048;-60
2022/09/10 08:50:41;;;;;;;2.97;0.90;;;;;;;-145.70;100.00;63560.63;5037468;28;20322;-63
2022/09/10 08:53:28;;;;;;;4.57;0.80;;;;;;;-145.70;100.00;63560.63;5060344;28;20692;-59
2022/09/10 08:55:59;;;;;;;2.72;0.85;;;;;;;-145.70;100.00;63560.63;5079443;28;20131;-59
2022/09/10 08:58:41;;;;;;;3.72;0.90;;;;;;;-145.70;100.00;63560.63;5075813;28;20419;-61
2022/09/10 09:01:13;;;;;;;2.80;1.10;;;;;;;-145.70;100.00;63560.63;5058100;28;20027;-61
2022/09/10 09:03:47;;;;;;;2.78;1.00;;;;;;;-145.70;100.00;63560.63;5069896;28;20039;-60
2022/09/10 09:06:31;;;;;;;4.93;1.05;;;;;;;-145.70;100.00;63560.63;5051379;28;20024;-60
2022/09/10 09:08:59;;;;;;;3.58;0.80;;;;;;;-145.70;100.00;63560.63;5071775;28;20099;-60
2022/09/10 09:11:43;;;;;;;1.95;0.68;;;;;;;-145.70;100.00;63560.63;5018920;28;20248;-61
2022/09/10 09:14:21;;;;;;;3.65;0.90;;;;;;;-145.70;100.00;63560.63;5076831;28;20119;-60
2022/09/10 09:17:08;;;;;;;3.65;0.95;;;;;;;-145.70;100.00;63560.63;5072708;28;20028;-62
2022/09/10 09:20:11;;;;;;;4.80;1.10;;;;;;;-145.70;100.00;63560.63;5056993;28;20032;-64
2022/09/10 09:22:48;;;;;;;2.63;0.90;;;;;;;-145.70;100.00;63560.63;5070842;28;20206;-66
2022/09/10 09:25:20;;;;;;;4.20;1.60;;;;;;;-145.70;100.00;63560.63;5074306;28;20036;-61
2022/09/10 09:27:46;;;;;;;2.83;0.80;;;;;;;-145.70;100.00;63560.63;5067151;28;20428;-61
2022/09/10 09:30:17;;;;;;;3.53;0.70;;;;;;;-145.70;100.00;63560.63;5076260;28;20769;-63
2022/09/10 09:32:44;;;;;;;3.90;1.20;;;;;;;-145.70;100.00;63560.63;5050788;28;20036;-60
2022/09/10 09:35:20;;;;;;;2.50;0.80;;;;;;;-145.70;100.00;63560.63;5083182;28;20520;-60
2022/09/10 09:37:48;;;;;;;3.15;1.00;;;;;;;-145.70;100.00;63560.63;5067187;28;20112;-61
2022/09/10 09:40:36;;;;;;;3.40;0.70;;;;;;;-145.70;100.00;63560.63;5102069;27;20028;-60
2022/09/10 09:43:08;;;;;;;3.03;1.00;;;;;;;-145.70;100.00;63560.63;5073376;28;20649;-61
2022/09/10 09:45:42;;;;;;;3.53;0.95;;;;;;;-145.70;100.00;63560.63;5059024;28;20557;-63
2022/09/10 09:48:11;;;;;;;4.30;0.90;;;;;;;-145.70;100.00;63560.63;5073809;28;20084;-60
2022/09/10 09:50:40;;;;;;;3.45;0.98;;;;;;;-145.70;100.00;63560.63;5055348;28;20035;-62
2022/09/10 09:53:06;;;;;;;2.75;0.90;;;;;;;-145.70;100.00;63560.63;5066195;28;20059;-62
2022/09/10 09:55:37;;;;;;;3.10;1.33;;;;;;;-145.70;100.00;63560.63;5062187;28;20024;-61
2022/09/10 09:58:22;;;;;;;2.58;0.77;;;;;;;-145.70;100.00;63560.63;5060819;28;20028;-61
2022/09/10 10:00:52;;;;;;;2.90;0.75;;;;;;;-145.70;100.00;63560.63;5073438;28;20020;-63
2022/09/10 10:03:24;;;;;;;2.53;0.80;;;;;;;-145.70;100.00;63560.63;5099254;27;20083;-60
2022/09/10 10:06:02;;;;;;;2.30;0.80;;;;;;;-145.70;100.00;63560.63;5080915;28;20012;-64
2022/09/10 10:08:39;;;;;;;2.47;0.80;;;;;;;-145.70;100.00;63560.63;5068318;28;20035;-61
2022/09/10 10:11:06;;;;;;;3.28;1.13;;;;;;;-145.70;100.00;63560.63;5063614;28;20101;-63
2022/09/10 10:13:37;;;;;;;2.97;1.02;;;;;;;-145.70;100.00;63560.63;5061021;28;20070;-60
2022/09/10 10:16:14;;;;;;;2.72;0.70;;;;;;;-145.70;100.00;63560.63;5070772;28;20139;-60
2022/09/10 10:18:41;;;;;;;3.28;0.60;;;;;;;-145.70;100.00;63560.63;5076359;28;20024;-61
2022/09/10 10:21:21;;;;;;;2.20;0.73;;;;;;;-145.70;100.00;63560.63;5068273;28;20097;-61
2022/09/10 10:23:47;;;;;;;3.50;0.80;;;;;;;-145.70;100.00;63560.63;5081972;28;20016;-61
2022/09/10 10:26:19;;;;;;;2.72;1.00;;;;;;;-145.70;100.00;63560.63;5065362;28;20036;-61
2022/09/10 10:28:49;;;;;;;3.72;0.80;;;;;;;-145.70;100.00;63560.63;5075839;28;20483;-61
2022/09/10 10:31:15;;;;;;;3.90;0.80;;;;;;;-145.70;100.00;63560.63;5053279;28;20356;-63
2022/09/10 10:34:06;;;;;;;3.60;0.90;;;;;;;-145.70;100.00;63560.63;5058114;27;20024;-61
2022/09/10 10:36:58;;;;;;;4.03;0.77;;;;;;;-145.70;100.00;63560.63;5074916;28;20039;-61
2022/09/10 10:40:13;;;;;;;1.83;0.57;;;;;;;-145.70;100.00;63560.63;5036713;28;20482;-61
2022/09/10 10:42:52;;;;;;;2.67;0.77;;;;;;;-145.70;100.00;63560.63;5069347;28;20118;-61
2022/09/10 10:45:40;;;;;;;2.67;0.63;;;;;;;-145.70;100.00;63560.63;5081266;28;20906;-61
2022/09/10 10:48:27;;;;;;;2.78;0.65;;;;;;;-145.70;100.00;63560.63;5060656;28;20017;-63
2022/09/10 10:50:57;;;;;;;1.40;0.60;;;;;;;-145.70;100.00;63560.63;5073009;28;20157;-63
2022/09/10 10:53:46;;;;;;;2.90;0.85;;;;;;;-145.70;100.00;63560.63;5012380;28;20693;-61
2022/09/10 10:56:27;;;;;;;2.53;0.70;;;;;;;-145.70;100.00;63560.63;5068887;28;20042;-60
2022/09/10 10:59:16;;;;;;;2.80;0.80;;;;;;;-145.70;100.00;63560.63;5076488;28;20269;-63
2022/09/10 11:02:30;;;;;;;3.28;0.82;;;;;;;-145.70;100.00;63560.63;5074766;28;20032;-63
2022/09/10 11:04:57;;;;;;;2.85;0.73;;;;;;;-145.70;100.00;63560.63;5073366;28;20688;-62
2022/09/10 11:07:30;;;;;;;2.95;0.90;;;;;;;-145.70;100.00;63560.63;5060634;28;20433;-61
2022/09/10 11:10:14;;;;;;;2.90;0.90;;;;;;;-145.70;100.00;63560.63;5075075;28;20127;-61
2022/09/10 11:13:08;;;;;;;3.17;0.75;;;;;;;-145.70;100.00;63560.63;5084618;27;20024;-60
2022/09/10 11:15:41;;;;;;;2.58;0.80;;;;;;;-145.70;100.00;63560.63;5078646;28;20039;-61
2022/09/10 11:18:27;;;;;;;2.15;0.80;;;;;;;-145.70;100.00;63560.63;5066375;28;20025;-60
2022/09/10 11:21:02;;;;;;;2.63;0.90;;;;;;;-145.70;100.00;63560.63;5059945;28;20672;-63
2022/09/10 11:23:33;;;;;;;3.30;0.90;;;;;;;-145.70;100.00;63560.63;5071585;28;20054;-61